Time;durP1;ratioP1;P1;durP2;ratioP2;P2;SDS_P1;SDS_P2;PMS_P1;PMS_P2;Temp;Humidity;BMP_temperature;BMP_pressure;BME280_temperature;BME280_humidity;BME280_pressure;Samples;Min_cycle;Max_cycle;Signal;HPM_P1;HPM_P2
2022/05/16 00:02:22;;;;;;;;;4.00;4.00;;;;;23.90;45.42;100766.38;5037780;28;45518;-56
2022/05/16 00:04:49;;;;;;;;;4.25;3.75;;;;;23.90;45.68;100786.69;5037123;28;45383;-56
2022/05/16 00:07:17;;;;;;;;;6.75;3.50;;;;;23.90;45.53;100792.84;5037107;28;46016;-58
2022/05/16 00:09:43;;;;;;;;;6.00;4.00;;;;;23.91;45.77;100814.84;5037216;28;45386;-57
2022/05/16 00:12:09;;;;;;;;;5.00;4.00;;;;;23.90;45.63;100832.53;5037050;28;45752;-58
2022/05/16 00:14:37;;;;;;;;;3.75;3.75;;;;;23.86;46.01;100796.66;5036913;28;46317;-58
2022/05/16 00:17:02;;;;;;;;;6.00;4.25;;;;;23.85;46.13;100808.19;5036795;28;45383;-57
2022/05/16 00:19:28;;;;;;;;;5.25;4.75;;;;;23.84;45.89;100795.06;5035791;28;45352;-57
2022/05/16 00:21:53;;;;;;;;;4.50;4.00;;;;;23.83;46.12;100786.25;5037582;28;45270;-57
2022/05/16 00:24:24;;;;;;;;;5.25;5.00;;;;;23.84;45.83;100776.53;5036784;28;46340;-57
2022/05/16 00:26:49;;;;;;;;;5.50;5.50;;;;;23.82;45.64;100773.97;5036714;28;45297;-56
2022/05/16 00:29:14;;;;;;;;;5.00;4.00;;;;;23.83;46.38;100775.69;5036852;28;45347;-57
2022/05/16 00:31:39;;;;;;;;;5.50;4.00;;;;;23.82;46.55;100759.91;5036833;28;45576;-57
2022/05/16 00:34:05;;;;;;;;;5.50;4.75;;;;;23.81;46.13;100782.91;5035366;28;48358;-56
2022/05/16 00:36:30;;;;;;;;;3.50;3.50;;;;;23.80;46.52;100786.50;5036758;28;45276;-57
2022/05/16 00:38:56;;;;;;;;;3.50;3.50;;;;;23.82;46.27;100797.81;5036773;28;45435;-57
2022/05/16 00:41:21;;;;;;;;;6.75;5.00;;;;;23.82;46.69;100781.09;5035892;28;45188;-56
2022/05/16 00:43:55;;;;;;;;;4.00;4.00;;;;;23.81;46.92;100782.03;5035259;28;47548;-57
2022/05/16 00:46:22;;;;;;;;;5.00;4.50;;;;;23.81;46.23;100780.25;5036493;28;45470;-58
2022/05/16 00:48:48;;;;;;;;;3.00;3.00;;;;;23.78;46.33;100767.22;5036731;28;45261;-57
2022/05/16 00:51:31;;;;;;;;;5.00;5.00;;;;;23.80;46.82;100785.63;5036805;28;45179;-57
2022/05/16 00:54:12;;;;;;;;;4.00;4.00;;;;;23.77;46.80;100776.97;5036683;28;46349;-56
2022/05/16 00:56:38;;;;;;;;;4.25;4.00;;;;;23.77;46.74;100754.94;5036473;28;45323;-57
2022/05/16 00:59:04;;;;;;;;;4.75;4.25;;;;;23.76;46.83;100764.69;5036739;28;45439;-57
2022/05/16 01:06:59;;;;;;;;;4.50;4.00;;;;;23.71;46.79;100753.59;5036306;28;45367;-56
2022/05/16 01:09:24;;;;;;;;;5.00;4.00;;;;;23.70;47.13;100743.94;5036683;28;45296;-56
2022/05/16 01:11:51;;;;;;;;;4.00;4.00;;;;;23.69;47.12;100744.91;5036516;28;45309;-56
2022/05/16 01:14:43;;;;;;;;;4.50;4.50;;;;;23.70;46.80;100754.53;5034762;28;47607;-57
2022/05/16 01:17:09;;;;;;;;;5.00;5.00;;;;;23.69;46.88;100759.94;5036137;28;45311;-56
2022/05/16 01:19:34;;;;;;;;;5.25;5.25;;;;;23.68;46.66;100759.09;5036130;28;45327;-56
2022/05/16 01:22:23;;;;;;;;;6.75;6.50;;;;;23.68;46.61;100756.44;5036565;28;45303;-57
2022/05/16 01:24:52;;;;;;;;;4.25;3.00;;;;;23.70;47.15;100756.34;5035881;28;46783;-57
2022/05/16 01:27:17;;;;;;;;;4.50;4.00;;;;;23.69;47.07;100762.59;5035844;28;45323;-57
2022/05/16 01:29:42;;;;;;;;;4.25;4.00;;;;;23.68;47.00;100756.44;5036064;28;45324;-56
2022/05/16 01:32:10;;;;;;;;;5.50;4.00;;;;;23.67;47.02;100759.19;5036161;28;45672;-56
2022/05/16 01:34:36;;;;;;;;;3.50;3.50;;;;;23.65;46.79;100759.28;5035896;28;46366;-57
2022/05/16 01:37:01;;;;;;;;;6.75;4.50;;;;;23.65;47.20;100767.22;5035835;28;45344;-55
2022/05/16 01:39:27;;;;;;;;;6.50;5.25;;;;;23.63;47.44;100769.16;5036336;28;45298;-57
2022/05/16 01:41:52;;;;;;;;;3.00;3.00;;;;;23.61;47.11;100781.66;5036103;28;45250;-58
2022/05/16 01:44:18;;;;;;;;;4.00;3.00;;;;;23.62;46.99;100784.16;5035801;28;45340;-57
2022/05/16 01:46:43;;;;;;;;;4.50;4.50;;;;;23.63;46.77;100779.75;5035729;28;45272;-56
2022/05/16 01:49:10;;;;;;;;;5.25;5.25;;;;;23.66;47.47;100774.22;5035876;28;45308;-57
2022/05/16 01:51:36;;;;;;;;;6.75;5.00;;;;;23.65;47.17;100783.09;5036389;28;45543;-56
2022/05/16 01:54:03;;;;;;;;;3.50;3.50;;;;;23.65;46.92;100787.56;5039088;28;45347;-57
2022/05/16 01:56:30;;;;;;;;;5.00;5.00;;;;;23.64;46.84;100794.66;5039489;28;45958;-56
2022/05/16 01:58:56;;;;;;;;;4.25;4.25;;;;;23.65;46.90;100788.41;5039468;28;45269;-56
2022/05/16 02:01:21;;;;;;;;;6.50;6.00;;;;;23.64;47.20;100786.72;5039406;28;45625;-56
2022/05/16 02:03:48;;;;;;;;;6.50;4.00;;;;;23.63;46.98;100790.31;5039048;28;45607;-57
2022/05/16 02:06:14;;;;;;;;;4.25;3.75;;;;;23.63;47.22;100793.81;5039159;28;45433;-56
2022/05/16 02:08:40;;;;;;;;;3.75;3.75;;;;;23.63;47.41;100790.31;5039308;28;45439;-57
2022/05/16 02:11:06;;;;;;;;;5.00;5.00;;;;;23.64;46.68;100786.72;5039241;28;45307;-57
2022/05/16 02:13:33;;;;;;;;;4.50;4.50;;;;;23.66;47.07;100791.91;5038806;28;46359;-57
2022/05/16 02:15:59;;;;;;;;;6.00;3.00;;;;;23.63;47.28;100792.97;5039164;28;45879;-57
2022/05/16 02:18:25;;;;;;;;;4.00;4.00;;;;;23.62;47.30;100793.91;5037525;28;45527;-57
2022/05/16 02:20:51;;;;;;;;;5.00;5.00;;;;;23.63;47.26;100792.97;5039151;28;45471;-57
2022/05/16 02:26:00;;;;;;;;;7.50;6.00;;;;;23.61;47.64;100782.47;5039086;28;45783;-56
2022/05/16 02:28:26;;;;;;;;;4.25;4.25;;;;;23.61;46.88;100784.28;5038817;28;45343;-57
2022/05/16 02:30:53;;;;;;;;;4.75;4.75;;;;;23.61;46.86;100784.28;5038907;28;45671;-57
2022/05/16 02:33:20;;;;;;;;;7.25;5.00;;;;;23.60;46.86;100790.53;5038536;28;45273;-57
2022/05/16 02:35:46;;;;;;;;;5.75;5.75;;;;;23.61;47.13;100786.94;5038466;28;45343;-57
2022/05/16 02:38:13;;;;;;;;;5.00;5.00;;;;;23.60;47.21;100785.25;5038648;28;45371;-57
2022/05/16 02:40:39;;;;;;;;;6.75;5.50;;;;;23.63;46.50;100790.31;5020736;28;45416;-57
2022/05/16 02:43:05;;;;;;;;;7.25;6.00;;;;;23.63;47.36;100792.97;5038292;28;45653;-58
2022/05/16 02:45:32;;;;;;;;;3.00;3.00;;;;;23.64;47.25;100784.09;5038707;28;45207;-56
2022/05/16 02:47:58;;;;;;;;;6.25;5.50;;;;;23.63;46.89;100785.88;5038748;28;45773;-56
2022/05/16 02:50:24;;;;;;;;;7.50;5.00;;;;;23.63;46.82;100799.09;5037343;28;45382;-56
2022/05/16 02:52:50;;;;;;;;;6.00;6.00;;;;;23.66;46.95;100805.13;5038259;28;46183;-56
2022/05/16 02:55:16;;;;;;;;;4.00;4.00;;;;;23.65;47.33;100798.97;5038263;28;45401;-57
2022/05/16 02:57:41;;;;;;;;;6.75;5.00;;;;;23.66;46.83;100800.69;5038353;28;45362;-56
2022/05/16 03:00:08;;;;;;;;;6.25;6.25;;;;;23.65;47.24;100793.69;5038399;28;45511;-56
2022/05/16 03:02:34;;;;;;;;;4.25;4.25;;;;;23.66;47.09;100790.09;5036675;28;46390;-56
2022/05/16 03:05:00;;;;;;;;;6.50;5.50;;;;;23.66;46.77;100792.75;5038401;28;45460;-57
2022/05/16 03:07:25;;;;;;;;;7.25;5.25;;;;;23.68;46.50;100788.19;5038180;28;45229;-57
2022/05/16 03:09:50;;;;;;;;;7.50;7.25;;;;;23.68;47.01;100788.19;5038305;28;45225;-57
2022/05/16 03:12:16;;;;;;;;;4.50;4.50;;;;;23.68;47.22;100788.19;5037896;28;46371;-57
2022/05/16 03:14:41;;;;;;;;;6.75;5.50;;;;;23.68;47.06;100796.13;5037947;28;45294;-57
2022/05/16 03:17:07;;;;;;;;;11.25;6.50;;;;;23.68;47.02;100798.78;5038083;28;45321;-56
2022/05/16 03:19:34;;;;;;;;;8.25;6.50;;;;;23.68;46.74;100813.81;5038225;28;45647;-56
2022/05/16 03:21:59;;;;;;;;;6.25;6.00;;;;;23.69;46.56;100821.63;5038027;28;46958;-56
2022/05/16 03:24:24;;;;;;;;;5.25;5.00;;;;;23.68;46.63;100825.22;5037869;28;45403;-56
2022/05/16 03:26:50;;;;;;;;;8.00;7.00;;;;;23.71;47.18;100829.47;5037830;28;45373;-56
2022/05/16 03:29:16;;;;;;;;;8.00;7.00;;;;;23.71;46.61;100822.38;5038025;28;45363;-57
2022/05/16 03:31:42;;;;;;;;;5.50;5.50;;;;;23.70;46.98;100815.41;5037578;28;45442;-57
2022/05/16 03:34:09;;;;;;;;;7.00;6.00;;;;;23.71;46.67;100811.81;5037525;28;45741;-57
2022/05/16 03:36:35;;;;;;;;;7.50;7.50;;;;;23.71;46.90;100803.00;5038030;28;45324;-56
2022/05/16 03:41:45;;;;;;;;;10.00;7.50;;;;;23.72;46.97;100831.16;5037486;28;45350;-56
2022/05/16 03:44:10;;;;;;;;;6.00;6.00;;;;;23.70;46.68;100823.34;5037577;28;45286;-58
2022/05/16 03:46:36;;;;;;;;;7.25;7.25;;;;;23.71;46.95;100846.19;5037573;28;45228;-58
2022/05/16 03:49:03;;;;;;;;;9.25;7.50;;;;;23.71;46.73;100848.84;5038195;28;45559;-56
2022/05/16 03:51:28;;;;;;;;;9.00;6.50;;;;;23.70;47.19;100855.09;5019361;28;47399;-56
2022/05/16 03:53:53;;;;;;;;;7.75;7.00;;;;;23.69;47.32;100863.16;5037392;28;45186;-56
2022/05/16 03:56:22;;;;;;;;;10.25;8.00;;;;;23.71;47.07;100874.44;5037392;28;45194;-56
2022/05/16 03:58:48;;;;;;;;;7.25;6.25;;;;;23.69;46.76;100879.84;5037317;28;45444;-56
2022/05/16 04:01:13;;;;;;;;;8.25;5.25;;;;;23.70;47.36;100876.25;5037065;28;45422;-56
2022/05/16 04:03:39;;;;;;;;;10.00;10.00;;;;;23.68;47.34;100870.22;5037157;28;45407;-56
2022/05/16 04:06:06;;;;;;;;;10.50;9.00;;;;;23.68;47.03;100875.50;5037523;28;45328;-56
2022/05/16 04:08:31;;;;;;;;;8.00;8.00;;;;;23.68;47.01;100872.88;5037810;28;45351;-57
2022/05/16 04:10:58;;;;;;;;;8.25;8.25;;;;;23.69;47.57;100879.84;5037059;28;45448;-57
2022/05/16 04:13:24;;;;;;;;;9.25;8.75;;;;;23.69;47.25;100879.84;5036703;28;45821;-56
2022/05/16 04:15:50;;;;;;;;;11.00;11.00;;;;;23.68;47.78;100883.44;5037168;28;45388;-57
2022/05/16 04:18:15;;;;;;;;;13.50;12.25;;;;;23.67;47.97;100876.47;5037056;28;45406;-57
2022/05/16 04:20:41;;;;;;;;;15.50;13.75;;;;;23.66;47.80;100895.09;5036902;28;45445;-59
2022/05/16 04:23:07;;;;;;;;;14.25;11.50;;;;;23.63;48.19;100896.16;5037122;28;45332;-58
2022/05/16 04:25:32;;;;;;;;;12.75;12.25;;;;;23.57;48.52;100900.06;5019249;28;45343;-58
2022/05/16 04:27:58;;;;;;;;;14.00;14.00;;;;;23.54;48.71;100917.91;5037041;28;45292;-58
2022/05/16 04:30:23;;;;;;;;;14.00;12.75;;;;;23.52;48.74;100914.56;5036471;28;45747;-58
2022/05/16 04:32:49;;;;;;;;;12.00;12.00;;;;;23.49;48.76;100914.75;5035336;28;45421;-58
2022/05/16 04:35:14;;;;;;;;;12.00;12.00;;;;;23.45;48.96;100925.53;5036820;28;45483;-57
2022/05/16 04:37:39;;;;;;;;;12.75;12.75;;;;;23.40;48.81;100921.50;5035795;28;45327;-58
2022/05/16 04:40:08;;;;;;;;;11.75;11.75;;;;;23.38;49.16;100926.91;5036706;28;46894;-58
2022/05/16 04:42:43;;;;;;;;;14.25;14.00;;;;;23.37;49.16;100927.84;5036804;28;45406;-57
2022/05/16 04:45:17;;;;;;;;;13.50;12.00;;;;;23.37;49.65;100942.88;5036634;28;45263;-57
2022/05/16 04:47:45;;;;;;;;;17.75;16.25;;;;;23.33;49.68;100942.19;5036875;28;45334;-57
2022/05/16 04:50:12;;;;;;;;;17.00;15.50;;;;;23.33;49.37;100960.72;5035214;28;46607;-56
2022/05/16 04:52:38;;;;;;;;;15.75;13.50;;;;;23.31;49.72;100962.63;5036606;28;45955;-56
2022/05/16 04:55:03;;;;;;;;;13.25;13.25;;;;;23.30;49.52;100969.72;5036480;28;45491;-55
2022/05/16 04:57:29;;;;;;;;;12.00;11.00;;;;;23.29;49.80;100988.34;5036703;28;45372;-58
2022/05/16 04:59:54;;;;;;;;;19.25;14.25;;;;;23.26;49.94;100991.16;5036036;28;46700;-56
2022/05/16 05:02:20;;;;;;;;;18.00;13.50;;;;;23.25;49.98;100992.09;5036139;28;45374;-57
2022/05/16 05:04:45;;;;;;;;;18.00;16.00;;;;;23.23;50.01;101000.16;5036097;28;46866;-57
2022/05/16 05:07:12;;;;;;;;;14.25;13.50;;;;;23.22;49.69;101009.03;5036476;28;45303;-57
2022/05/16 05:14:32;;;;;;;;;16.00;16.00;;;;;23.21;50.18;101003.81;5036469;28;46605;-58
2022/05/16 05:15:10;;;;;;;;;19.75;17.25;;;;;23.16;49.78;100999.66;5036501;28;45199;-58
2022/05/16 05:17:35;;;;;;;;;17.75;17.50;;;;;23.16;49.85;101002.31;5036602;28;45509;-57
2022/05/16 05:20:02;;;;;;;;;17.00;15.00;;;;;23.15;49.81;101003.25;5035845;28;45415;-57
2022/05/16 05:22:28;;;;;;;;;15.50;14.25;;;;;23.10;50.38;100999.19;5035899;28;45422;-58
2022/05/16 05:24:54;;;;;;;;;17.00;16.50;;;;;23.10;50.56;101000.03;5036076;28;45381;-56
2022/05/16 05:27:19;;;;;;;;;19.25;16.25;;;;;23.10;50.11;101000.03;5038929;28;45530;-57
2022/05/16 05:29:46;;;;;;;;;16.00;14.75;;;;;23.10;50.14;101010.63;5039354;28;46234;-56
2022/05/16 05:32:11;;;;;;;;;16.50;14.50;;;;;23.09;49.98;101016.88;5038212;28;45888;-56
2022/05/16 05:34:40;;;;;;;;;17.00;14.75;;;;;23.10;50.10;101021.19;5039864;28;45226;-58
2022/05/16 05:37:06;;;;;;;;;17.75;15.00;;;;;23.09;50.08;101018.66;5039861;28;45544;-58
2022/05/16 05:39:35;;;;;;;;;20.75;17.25;;;;;23.09;50.18;101035.38;5039214;28;45522;-58
2022/05/16 05:42:01;;;;;;;;;21.00;15.50;;;;;23.08;50.55;101033.69;5039418;28;45735;-57
2022/05/16 05:44:26;;;;;;;;;19.00;17.00;;;;;23.06;50.28;101040.84;5039505;28;45344;-57
2022/05/16 05:46:52;;;;;;;;;21.25;19.25;;;;;23.06;50.25;101046.13;5039460;28;45326;-57
2022/05/16 05:49:19;;;;;;;;;19.00;17.75;;;;;23.05;50.40;101056.78;5039242;28;45251;-58
2022/05/16 05:51:44;;;;;;;;;19.00;16.00;;;;;23.05;50.34;101070.88;5039070;28;45852;-57
2022/05/16 05:54:09;;;;;;;;;18.25;16.50;;;;;23.07;50.25;101068.13;5039622;28;45561;-57
2022/05/16 05:56:35;;;;;;;;;24.25;19.75;;;;;23.06;50.40;101083.16;5039343;28;45576;-58
2022/05/16 05:59:00;;;;;;;;;16.00;15.00;;;;;23.05;50.44;101085.88;5038825;28;45395;-57
2022/05/16 06:01:26;;;;;;;;;17.25;17.25;;;;;23.07;50.28;101097.19;5021128;28;45790;-58
2022/05/16 06:03:52;;;;;;;;;18.50;17.00;;;;;23.05;50.05;101097.31;5039149;28;45383;-57
2022/05/16 06:06:18;;;;;;;;;20.25;16.75;;;;;23.07;50.44;101103.34;5039047;28;45534;-58
2022/05/16 06:08:44;;;;;;;;;13.25;13.25;;;;;23.07;50.08;101098.06;5038868;28;45337;-57
2022/05/16 06:11:09;;;;;;;;;21.50;16.50;;;;;23.09;50.03;101097.97;5039107;28;45351;-57
2022/05/16 06:13:34;;;;;;;;;17.50;16.50;;;;;23.10;50.31;101099.66;5039147;28;45322;-57
2022/05/16 06:16:00;;;;;;;;;16.75;15.50;;;;;23.10;50.10;101104.94;5039044;28;45463;-57
2022/05/16 06:18:25;;;;;;;;;18.00;17.00;;;;;23.08;49.99;101110.34;5038525;28;47031;-56
2022/05/16 06:20:51;;;;;;;;;23.00;18.75;;;;;23.07;50.14;101116.56;5038726;28;45296;-56
2022/05/16 06:23:16;;;;;;;;;17.50;16.50;;;;;23.06;50.00;101109.59;5038916;28;45283;-57
2022/05/16 06:25:43;;;;;;;;;21.25;17.25;;;;;23.07;50.13;101116.56;5039194;28;45506;-57
2022/05/16 06:28:18;;;;;;;;;16.00;16.00;;;;;23.08;50.20;101118.28;5038848;28;46293;-58
2022/05/16 06:30:48;;;;;;;;;21.75;20.75;;;;;23.06;49.94;101125.44;5038629;28;45330;-56
2022/05/16 06:33:16;;;;;;;;;19.50;17.25;;;;;23.03;50.13;101125.63;5037696;28;45279;-57
2022/05/16 06:35:42;;;;;;;;;18.00;17.25;;;;;23.05;50.12;101144.03;5037931;28;45252;-57
2022/05/16 06:38:11;;;;;;;;;17.25;15.50;;;;;23.04;50.00;101137.91;5020183;28;47504;-58
2022/05/16 06:40:39;;;;;;;;;16.50;16.25;;;;;23.06;49.86;101148.38;5038265;28;45858;-57
2022/05/16 06:43:05;;;;;;;;;17.25;17.00;;;;;23.06;49.63;101145.72;5038453;28;45296;-58
2022/05/16 06:45:31;;;;;;;;;17.50;17.00;;;;;23.04;49.55;101153.75;5020835;28;45513;-57
2022/05/16 06:47:56;;;;;;;;;14.25;13.25;;;;;23.04;49.60;101153.75;5038119;28;45649;-58
2022/05/16 06:50:22;;;;;;;;;14.25;14.25;;;;;23.05;49.63;101159.88;5038328;28;45311;-58
2022/05/16 06:52:48;;;;;;;;;16.00;16.00;;;;;23.04;49.86;101153.75;5038449;28;45383;-57
2022/05/16 06:55:14;;;;;;;;;20.75;16.75;;;;;23.07;49.95;101168.59;5038775;28;45447;-57
2022/05/16 06:57:40;;;;;;;;;15.00;15.00;;;;;23.06;49.58;101172.16;5038243;28;46701;-58
2022/05/16 07:00:07;;;;;;;;;18.00;16.50;;;;;23.05;49.78;101181.03;5037982;28;45709;-63
2022/05/16 07:02:33;;;;;;;;;17.75;16.75;;;;;23.02;49.71;101187.38;5037969;28;45379;-60
2022/05/16 07:05:00;;;;;;;;;16.75;16.00;;;;;23.02;49.17;101197.94;5038360;28;45415;-60
2022/05/16 07:07:26;;;;;;;;;16.00;14.25;;;;;22.98;49.72;101199.94;5037877;28;46529;-60
2022/05/16 07:09:51;;;;;;;;;11.50;10.25;;;;;22.99;49.36;101203.41;5038087;28;45392;-63
2022/05/16 07:12:17;;;;;;;;;16.25;16.25;;;;;22.98;49.70;101207.03;5038142;28;45245;-60
2022/05/16 07:14:42;;;;;;;;;16.75;13.75;;;;;23.02;49.31;101211.16;5038466;28;45171;-57
2022/05/16 07:17:08;;;;;;;;;15.50;13.25;;;;;23.04;49.33;101205.81;5037551;28;46244;-62
2022/05/16 07:19:36;;;;;;;;;15.25;13.25;;;;;23.06;49.01;101210.03;5037585;28;45257;-60
2022/05/16 07:22:10;;;;;;;;;17.00;15.00;;;;;23.07;48.81;101219.69;5037845;28;45355;-61
2022/05/16 07:24:35;;;;;;;;;15.50;14.00;;;;;23.07;48.99;101222.31;5038016;28;45304;-61
2022/05/16 07:29:45;;;;;;;;;14.75;13.25;;;;;23.09;48.46;101231.03;5037857;28;45918;-58
2022/05/16 07:32:11;;;;;;;;;15.50;13.50;;;;;23.12;48.50;101235.25;5037954;28;45293;-60
2022/05/16 07:34:38;;;;;;;;;9.25;7.25;;;;;23.11;48.56;101244.97;5038097;28;46009;-59
2022/05/16 07:37:04;;;;;;;;;15.75;13.25;;;;;23.13;48.38;101247.53;5037502;28;46416;-60
2022/05/16 07:39:29;;;;;;;;;14.50;12.00;;;;;23.14;48.38;101241.31;5037435;28;45289;-60
2022/05/16 07:41:54;;;;;;;;;12.25;10.75;;;;;23.14;48.48;101243.97;5037609;28;45395;-61
2022/05/16 07:44:20;;;;;;;;;15.00;13.00;;;;;23.12;48.60;101245.84;5037751;28;45494;-60
2022/05/16 07:46:46;;;;;;;;;14.00;13.50;;;;;23.10;48.77;101243.28;5037620;28;46486;-59
2022/05/16 07:49:13;;;;;;;;;11.50;11.25;;;;;23.12;48.34;101251.13;5035435;28;45387;-60
2022/05/16 07:51:39;;;;;;;;;19.25;15.00;;;;;23.13;48.19;101256.31;5036242;28;45269;-60
2022/05/16 07:54:05;;;;;;;;;12.00;12.00;;;;;23.15;48.58;101253.59;5037674;28;45609;-59
2022/05/16 07:56:32;;;;;;;;;12.75;11.50;;;;;23.15;48.01;101253.59;5036258;28;45451;-60
2022/05/16 07:58:57;;;;;;;;;15.25;12.75;;;;;23.15;48.27;101258.88;5035636;28;45787;-57
2022/05/16 08:01:22;;;;;;;;;14.50;14.00;;;;;23.15;48.15;101257.06;5037225;28;45351;-59
2022/05/16 08:03:48;;;;;;;;;16.25;12.50;;;;;23.17;47.59;101264.91;5037635;28;45623;-60
2022/05/16 08:06:13;;;;;;;;;16.25;14.50;;;;;23.14;47.60;101263.31;5037209;28;45819;-60
2022/05/16 08:11:22;;;;;;;;;12.75;10.50;;;;;23.17;47.74;101272.84;5037219;28;45296;-59
2022/05/16 08:13:48;;;;;;;;;12.50;11.50;;;;;23.18;47.42;101271.91;5037473;28;45320;-60
2022/05/16 08:16:14;;;;;;;;;10.00;10.00;;;;;23.20;47.28;101266.56;5036769;28;46854;-60
2022/05/16 08:18:40;;;;;;;;;10.25;10.25;;;;;23.21;46.94;101260.31;5036976;28;45936;-60
2022/05/16 08:21:07;;;;;;;;;11.75;9.75;;;;;23.21;46.68;101270.88;5037066;28;45308;-60
2022/05/16 08:23:33;;;;;;;;;11.00;10.00;;;;;23.23;46.85;101272.53;5037100;28;45349;-60
2022/05/16 08:26:01;;;;;;;;;17.00;11.00;;;;;23.24;46.82;101278.66;5036573;28;47045;-59
2022/05/16 08:28:27;;;;;;;;;6.75;6.50;;;;;23.24;46.63;101282.16;5036871;28;45347;-59
2022/05/16 08:30:53;;;;;;;;;9.25;9.25;;;;;23.24;46.72;101287.44;5036655;28;45471;-59
2022/05/16 08:33:18;;;;;;;;;10.50;8.75;;;;;23.27;46.34;101291.69;5037324;28;45347;-59
2022/05/16 08:35:44;;;;;;;;;8.50;8.00;;;;;23.26;46.20;101285.53;5036671;28;45594;-59
2022/05/16 08:41:09;;;;;;;;;8.75;8.75;;;;;23.28;46.15;101299.53;5036413;28;45411;-62
2022/05/16 08:43:42;;;;;;;;;10.75;10.75;;;;;23.29;46.15;101303.88;5036857;28;45435;-59
2022/05/16 08:46:19;;;;;;;;;9.50;9.00;;;;;23.30;46.15;101304.75;5036456;28;46397;-59
2022/05/16 08:48:51;;;;;;;;;10.50;10.50;;;;;23.28;46.27;101303.97;5036559;28;45359;-60
2022/05/16 08:51:24;;;;;;;;;8.50;8.50;;;;;23.30;45.93;101307.38;5036784;28;45344;-61
2022/05/16 08:53:55;;;;;;;;;10.00;8.25;;;;;23.28;46.05;101304.81;5037139;28;45332;-58
2022/05/16 08:56:28;;;;;;;;;9.00;8.75;;;;;23.27;45.55;101307.56;5036780;28;46611;-61
2022/05/16 08:59:04;;;;;;;;;9.75;7.75;;;;;23.28;45.49;101309.28;5036453;28;45329;-60
2022/05/16 09:01:49;;;;;;;;;9.25;9.25;;;;;23.29;45.87;101306.53;5036326;28;45450;-59
2022/05/16 09:04:21;;;;;;;;;12.25;9.50;;;;;23.26;45.60;101305.84;5036782;28;45378;-58
2022/05/16 09:07:05;;;;;;;;;9.75;9.75;;;;;23.28;45.74;101311.91;5036375;28;45442;-58
2022/05/16 09:10:00;;;;;;;;;11.00;8.00;;;;;23.25;46.00;101320.88;5036177;28;45762;-58
2022/05/16 09:12:33;;;;;;;;;10.50;10.00;;;;;23.23;46.25;101332.47;5032329;28;45630;-58
2022/05/16 09:15:16;;;;;;;;;10.25;8.00;;;;;23.20;46.40;101335.31;5018386;28;45427;-59
2022/05/16 09:18:10;;;;;;;;;10.75;9.25;;;;;23.17;46.89;101328.38;5036284;28;45664;-57
2022/05/16 09:20:58;;;;;;;;;10.25;8.50;;;;;23.16;47.00;101335.47;5036039;28;45470;-59
2022/05/16 09:23:41;;;;;;;;;12.00;9.50;;;;;23.17;46.75;101337.16;5034850;28;45423;-57
2022/05/16 09:26:13;;;;;;;;;9.75;8.75;;;;;23.22;46.61;101341.34;5036344;28;45522;-53
2022/05/16 09:28:45;;;;;;;;;9.50;9.50;;;;;23.24;46.87;101345.63;5035949;28;46648;-56
2022/05/16 09:31:20;;;;;;;;;10.50;7.25;;;;;23.26;46.85;101354.28;5035748;28;45796;-54
2022/05/16 09:33:52;;;;;;;;;12.50;9.75;;;;;23.31;46.53;101351.41;5034846;28;45271;-55
2022/05/16 09:36:46;;;;;;;;;8.75;8.00;;;;;23.35;46.28;101360.00;5036255;28;45328;-56
2022/05/16 09:39:16;;;;;;;;;8.75;8.00;;;;;23.37;46.45;101353.69;5035833;28;46479;-57
2022/05/16 09:41:48;;;;;;;;;11.00;8.00;;;;;23.39;46.58;101359.72;5035733;28;45880;-57
2022/05/16 09:44:25;;;;;;;;;9.00;9.00;;;;;23.43;46.57;101363.88;5034796;28;45406;-56
2022/05/16 09:47:23;;;;;;;;;10.75;8.50;;;;;23.44;46.49;101356.81;5036387;28;45490;-57
2022/05/16 09:50:20;;;;;;;;;9.25;9.25;;;;;23.47;45.97;101368.06;5035475;28;46308;-58
2022/05/16 09:52:49;;;;;;;;;11.50;7.25;;;;;23.50;46.27;101374.13;5034376;28;46400;-58
2022/05/16 09:55:33;;;;;;;;;8.75;8.75;;;;;23.51;46.53;101378.47;5018067;28;45427;-61
2022/05/16 09:58:14;;;;;;;;;12.00;10.50;;;;;23.52;46.54;101370.44;5017884;28;45619;-60
2022/05/16 10:00:45;;;;;;;;;10.00;10.00;;;;;23.54;46.51;101378.25;5017563;28;47880;-60
2022/05/16 10:03:19;;;;;;;;;9.00;8.00;;;;;23.56;46.38;101366.66;5035487;28;45239;-60
2022/05/16 10:05:47;;;;;;;;;10.50;9.25;;;;;23.56;46.47;101366.66;5035819;28;45446;-58
2022/05/16 10:08:22;;;;;;;;;4.75;4.75;;;;;23.59;45.90;101382.34;5035845;28;45590;-59
2022/05/16 10:10:47;;;;;;;;;11.25;9.75;;;;;23.60;45.97;101380.56;5017398;28;48243;-58
2022/05/16 10:13:14;;;;;;;;;9.50;8.00;;;;;23.63;46.63;101383.03;5037845;28;45333;-60
2022/05/16 10:15:39;;;;;;;;;9.00;9.00;;;;;23.65;46.21;101385.56;5038985;28;45340;-61
2022/05/16 10:18:10;;;;;;;;;9.25;7.75;;;;;23.65;46.59;101383.75;5039028;28;45249;-58
2022/05/16 10:20:46;;;;;;;;;9.50;9.00;;;;;23.69;46.33;101387.94;5038686;28;46251;-58
2022/05/16 10:23:37;;;;;;;;;9.75;8.75;;;;;23.71;46.06;101396.63;5038554;28;45837;-56
2022/05/16 10:26:07;;;;;;;;;13.00;9.00;;;;;23.73;46.01;101394.75;5029592;28;45467;-58
2022/05/16 10:28:37;;;;;;;;;11.25;11.25;;;;;23.73;46.53;101384.16;5038764;28;45526;-58
2022/05/16 10:33:51;;;;;;;;;13.00;11.75;;;;;23.75;46.30;101384.06;5038490;28;45711;-58
2022/05/16 10:36:28;;;;;;;;;14.50;11.25;;;;;23.77;46.23;101390.97;5038773;28;45332;-58
2022/05/16 10:39:15;;;;;;;;;16.00;13.50;;;;;23.80;45.92;101391.72;5038916;28;45563;-59
2022/05/16 10:42:03;;;;;;;;;17.00;13.00;;;;;23.81;45.84;101390.78;5036893;28;47624;-59
2022/05/16 10:44:47;;;;;;;;;16.75;15.00;;;;;23.82;45.83;101389.84;5038454;28;45338;-59
2022/05/16 10:47:21;;;;;;;;;13.50;13.25;;;;;23.83;46.23;101391.56;5038638;28;45434;-59
2022/05/16 10:50:34;;;;;;;;;14.50;11.00;;;;;23.83;45.88;101388.91;5038610;28;45854;-59
2022/05/16 10:53:05;;;;;;;;;16.00;13.75;;;;;23.83;45.97;101383.59;4957347;28;46683;-58
2022/05/16 10:55:43;;;;;;;;;13.25;13.25;;;;;23.85;45.75;101387.84;5006947;28;45722;-58
2022/05/16 10:59:02;;;;;;;;;15.25;12.75;;;;;23.85;46.22;101387.03;5020285;28;45270;-57
2022/05/16 11:01:34;;;;;;;;;10.50;10.50;;;;;23.88;45.87;101381.50;5038781;28;45527;-59
2022/05/16 11:04:50;;;;;;;;;18.50;13.00;;;;;23.90;46.15;101391.09;5038065;28;45475;-60
2022/05/16 11:07:30;;;;;;;;;13.25;12.00;;;;;23.92;46.10;101393.63;4957028;28;45472;-57
2022/05/16 11:10:13;;;;;;;;;17.00;13.00;;;;;23.93;46.27;101384.75;5037935;28;45328;-57
2022/05/16 11:13:05;;;;;;;;;14.75;13.00;;;;;23.94;46.09;101387.28;5038240;28;45420;-58
2022/05/16 11:15:36;;;;;;;;;11.50;10.50;;;;;23.96;46.25;101379.31;5037799;28;47488;-58
2022/05/16 11:18:21;;;;;;;;;15.50;13.00;;;;;23.98;45.67;101376.56;5037989;28;45407;-58
2022/05/16 11:21:09;;;;;;;;;10.50;9.75;;;;;24.02;46.32;101386.03;5037909;28;45385;-57
2022/05/16 11:23:44;;;;;;;;;11.75;11.50;;;;;24.05;46.35;101385.81;5036847;28;45364;-57
2022/05/16 11:26:20;;;;;;;;;17.50;11.75;;;;;24.08;46.75;101383.84;5036393;28;47447;-55
2022/05/16 11:29:17;;;;;;;;;17.75;13.50;;;;;24.09;45.92;101388.16;5037567;28;45277;-56
2022/05/16 11:31:50;;;;;;;;;11.75;10.75;;;;;24.07;46.80;101378.63;5037485;28;45641;-53
2022/05/16 11:34:30;;;;;;;;;20.25;12.00;;;;;24.11;46.55;101387.22;5038045;28;45422;-53
2022/05/16 11:37:22;;;;;;;;;14.00;10.75;;;;;24.17;46.26;101386.84;5036645;28;48028;-54
2022/05/16 11:39:57;;;;;;;;;12.50;11.25;;;;;24.24;45.59;101377.56;5033399;28;45874;-51
2022/05/16 11:42:53;;;;;;;;;11.00;9.00;;;;;24.33;45.60;101387.59;5037792;28;45333;-55
2022/05/16 11:45:49;;;;;;;;;11.25;9.00;;;;;24.33;45.18;101379.63;5037872;28;45478;-54
2022/05/16 11:48:36;;;;;;;;;8.75;8.50;;;;;24.32;45.22;101377.94;5037557;28;45533;-53
2022/05/16 11:51:41;;;;;;;;;12.50;9.25;;;;;24.32;44.82;101371.81;5037504;28;45765;-53
2022/05/16 11:54:07;;;;;;;;;15.00;12.25;;;;;24.31;45.38;101367.44;5037372;28;45286;-52
2022/05/16 12:02:27;;;;;;;;;13.25;9.25;;;;;24.32;44.79;101372.63;5037293;28;45337;-66